createdAt,value
2022-10-30T00:01:15.115Z,8.87
2022-10-30T00:03:42.281Z,9.10
2022-10-30T00:06:09.489Z,10.27
2022-10-30T00:08:37.060Z,9.13
2022-10-30T00:11:13.626Z,8.67
2022-10-30T00:13:44.145Z,10.43
2022-10-30T00:16:11.601Z,7.87
2022-10-30T00:18:40.093Z,7.43
2022-10-30T00:21:11.724Z,11.83
2022-10-30T00:23:39.745Z,6.70
2022-10-30T00:26:08.077Z,7.80
2022-10-30T00:28:35.575Z,7.87
2022-10-30T00:31:05.384Z,7.23
2022-10-30T00:33:32.952Z,7.97
2022-10-30T00:36:00.924Z,8.90
2022-10-30T00:38:28.221Z,8.83
2022-10-30T00:40:55.420Z,7.17
2022-10-30T00:43:30.643Z,6.63
2022-10-30T00:46:06.383Z,8.93
2022-10-30T00:48:34.865Z,5.43
2022-10-30T00:51:06.849Z,6.30
2022-10-30T00:53:34.397Z,6.30
2022-10-30T00:56:06.767Z,4.83
2022-10-30T00:58:44.950Z,5.33
2022-10-30T01:01:20.133Z,5.77
2022-10-30T01:03:50.497Z,7.93
2022-10-30T01:06:18.674Z,5.50
2022-10-30T01:08:48.021Z,8.33
2022-10-30T01:11:15.403Z,6.33
2022-10-30T01:13:47.054Z,11.40
2022-10-30T01:16:40.366Z,8.97
2022-10-30T01:19:33.655Z,6.43
2022-10-30T01:22:18.792Z,5.40
2022-10-30T01:25:13.176Z,7.90
2022-10-30T01:28:01.414Z,11.80
2022-10-30T01:31:10.743Z,6.03
2022-10-30T01:34:28.105Z,11.27
2022-10-30T01:37:14.464Z,7.27
2022-10-30T01:39:42.092Z,6.43
2022-10-30T01:42:52.052Z,14.53
2022-10-30T01:45:43.788Z,4.10
2022-10-30T01:48:22.810Z,7.00
2022-10-30T01:51:21.876Z,6.23
2022-10-30T01:54:12.464Z,12.43
2022-10-30T01:56:55.225Z,4.20
2022-10-30T01:59:51.140Z,8.10
2022-10-30T02:02:18.956Z,3.63
2022-10-30T02:04:46.475Z,6.50
2022-10-30T02:07:13.862Z,6.67
2022-10-30T02:09:42.104Z,4.47
2022-10-30T02:12:10.487Z,5.00
2022-10-30T02:14:45.187Z,6.07
2022-10-30T02:17:13.379Z,10.17
2022-10-30T02:19:40.532Z,8.97
2022-10-30T02:22:07.961Z,5.63
2022-10-30T02:24:35.139Z,12.00
2022-10-30T02:27:02.391Z,7.87
2022-10-30T02:29:29.893Z,10.03
2022-10-30T02:31:57.091Z,9.20
2022-10-30T02:34:24.256Z,4.97
2022-10-30T02:36:51.499Z,5.97
2022-10-30T02:39:18.752Z,6.30
2022-10-30T02:41:46.037Z,10.17
2022-10-30T02:44:13.412Z,10.73
2022-10-30T02:46:40.727Z,5.13
2022-10-30T02:49:08.040Z,4.33
2022-10-30T02:51:35.210Z,7.60
2022-10-30T02:54:02.363Z,6.63
2022-10-30T02:56:29.754Z,5.00
2022-10-30T02:58:57.378Z,6.03
2022-10-30T03:01:27.872Z,10.73
2022-10-30T03:03:55.388Z,7.57
2022-10-30T03:06:22.748Z,5.73
2022-10-30T03:08:50.040Z,4.50
2022-10-30T03:11:19.799Z,6.53
2022-10-30T03:13:49.199Z,9.27
2022-10-30T03:16:21.435Z,5.87
2022-10-30T03:18:49.081Z,8.33
2022-10-30T03:21:20.177Z,9.67
2022-10-30T03:23:47.733Z,5.13
2022-10-30T03:26:15.203Z,6.40
2022-10-30T03:28:42.780Z,12.43
2022-10-30T03:31:13.705Z,6.53
2022-10-30T03:33:41.827Z,6.77
2022-10-30T03:36:12.456Z,7.77
2022-10-30T03:38:40.482Z,8.07
2022-10-30T03:41:07.799Z,3.33
2022-10-30T03:43:35.271Z,6.77
2022-10-30T03:46:02.825Z,6.40
2022-10-30T03:48:30.691Z,6.93
2022-10-30T03:50:59.956Z,7.17
2022-10-30T03:53:28.894Z,5.70
2022-10-30T03:56:01.698Z,7.27
2022-10-30T03:58:30.288Z,5.37
2022-10-30T04:01:08.371Z,5.47
2022-10-30T04:03:36.126Z,5.53
2022-10-30T04:06:03.973Z,8.23
2022-10-30T04:08:31.541Z,8.83
2022-10-30T04:10:59.083Z,5.20
2022-10-30T04:13:26.739Z,8.40
2022-10-30T04:15:57.916Z,4.27
2022-10-30T04:18:26.481Z,5.47
2022-10-30T04:20:54.319Z,5.83
2022-10-30T04:23:23.009Z,7.20
2022-10-30T04:25:50.549Z,4.43
2022-10-30T04:28:18.040Z,8.63
2022-10-30T04:30:45.719Z,7.57
2022-10-30T04:33:14.071Z,7.20
2022-10-30T04:35:42.597Z,16.57
2022-10-30T04:38:15.481Z,16.77
2022-10-30T04:40:44.317Z,10.67
2022-10-30T04:43:12.831Z,16.90
2022-10-30T04:45:41.201Z,11.20
2022-10-30T04:48:19.357Z,8.00
2022-10-30T04:50:46.892Z,9.63
2022-10-30T04:53:19.212Z,11.23
2022-10-30T04:55:47.013Z,8.03
2022-10-30T04:58:14.962Z,7.77
2022-10-30T05:00:42.677Z,9.23
2022-10-30T05:03:18.179Z,8.53
2022-10-30T05:05:46.468Z,10.03
2022-10-30T05:08:13.964Z,10.83
2022-10-30T05:10:41.658Z,11.43
2022-10-30T05:13:11.292Z,8.40
2022-10-30T05:15:39.132Z,7.03
2022-10-30T05:18:06.761Z,8.73
2022-10-30T05:20:34.401Z,8.80
2022-10-30T05:23:02.121Z,8.53
2022-10-30T05:25:29.986Z,13.23
2022-10-30T05:28:05.955Z,6.83
2022-10-30T05:30:34.870Z,7.00
2022-10-30T05:33:05.966Z,9.90
2022-10-30T05:35:34.951Z,10.40
2022-10-30T05:38:05.712Z,6.83
2022-10-30T05:40:34.623Z,8.67
2022-10-30T05:43:02.543Z,6.77
2022-10-30T05:45:30.285Z,7.43
2022-10-30T05:48:00.255Z,9.13
2022-10-30T05:50:29.764Z,11.60
2022-10-30T05:53:05.424Z,9.03
2022-10-30T05:55:33.698Z,9.93
2022-10-30T05:58:04.220Z,12.17
2022-10-30T06:00:34.671Z,7.67
2022-10-30T06:03:04.464Z,9.10
2022-10-30T06:05:39.143Z,7.53
2022-10-30T06:08:08.082Z,10.37
2022-10-30T06:10:35.926Z,13.23
2022-10-30T06:13:05.645Z,13.87
2022-10-30T06:15:33.848Z,14.30
2022-10-30T06:18:01.828Z,14.10
2022-10-30T06:20:30.780Z,15.50
2022-10-30T06:23:02.475Z,15.80
2022-10-30T06:25:39.365Z,27.93
2022-10-30T06:28:09.670Z,21.50
2022-10-30T06:30:37.391Z,21.30
2022-10-30T06:33:05.940Z,23.83
2022-10-30T06:35:33.623Z,15.80
2022-10-30T06:38:01.170Z,20.20
2022-10-30T06:40:29.915Z,18.43
2022-10-30T06:42:58.554Z,17.37
2022-10-30T06:45:26.464Z,16.10
2022-10-30T06:47:54.080Z,15.87
2022-10-30T06:50:22.847Z,13.83
2022-10-30T06:52:50.397Z,15.40
2022-10-30T06:55:18.360Z,16.93
2022-10-30T06:57:46.225Z,22.17
2022-10-30T07:00:17.193Z,21.10
2022-10-30T07:02:44.775Z,20.07
2022-10-30T07:05:12.254Z,16.03
2022-10-30T07:07:39.794Z,21.53
2022-10-30T07:10:07.784Z,15.37
2022-10-30T07:12:35.386Z,15.67
2022-10-30T07:15:03.049Z,12.37
2022-10-30T07:17:30.642Z,14.70
2022-10-30T07:19:58.673Z,10.50
2022-10-30T07:22:26.254Z,13.10
2022-10-30T07:24:53.790Z,15.80
2022-10-30T07:27:21.284Z,14.70
2022-10-30T07:29:48.761Z,13.87
2022-10-30T07:32:16.455Z,14.20
2022-10-30T07:34:44.129Z,14.17
2022-10-30T07:37:11.624Z,12.97
2022-10-30T07:39:39.078Z,15.20
2022-10-30T07:42:06.658Z,13.70
2022-10-30T07:44:34.360Z,13.43
2022-10-30T07:47:01.907Z,15.10
2022-10-30T07:49:29.447Z,12.27
2022-10-30T07:51:56.993Z,12.63
2022-10-30T07:54:24.500Z,10.37
2022-10-30T07:56:52.084Z,8.60
2022-10-30T07:59:19.533Z,12.07
2022-10-30T08:01:47.109Z,13.27
2022-10-30T08:04:14.640Z,11.87
2022-10-30T08:06:42.364Z,13.97
2022-10-30T08:09:10.209Z,10.33
2022-10-30T08:11:37.734Z,8.20
2022-10-30T08:14:05.273Z,9.73
2022-10-30T08:16:32.774Z,12.67
2022-10-30T08:19:00.407Z,11.70
2022-10-30T08:21:28.076Z,11.57
2022-10-30T08:23:55.672Z,11.03
2022-10-30T08:26:23.395Z,8.07
2022-10-30T08:28:50.874Z,10.27
2022-10-30T08:31:18.565Z,6.37
2022-10-30T08:33:46.261Z,6.97
2022-10-30T08:36:13.853Z,11.20
2022-10-30T08:38:41.412Z,8.00
2022-10-30T08:41:08.942Z,7.07
2022-10-30T08:43:36.458Z,7.20
2022-10-30T08:46:04.025Z,7.23
2022-10-30T08:48:31.650Z,9.67
2022-10-30T08:50:59.822Z,6.70
2022-10-30T08:53:27.274Z,12.77
2022-10-30T08:55:54.795Z,9.13
2022-10-30T08:58:22.265Z,10.03
2022-10-30T09:00:49.851Z,10.00
2022-10-30T09:03:17.313Z,12.20
2022-10-30T09:05:44.774Z,7.33
2022-10-30T09:08:12.248Z,7.83
2022-10-30T09:10:40.128Z,8.30
2022-10-30T09:13:07.521Z,7.73
2022-10-30T09:15:34.748Z,10.57
2022-10-30T09:18:04.550Z,8.20
2022-10-30T09:20:32.284Z,8.07
2022-10-30T09:22:59.669Z,6.43
2022-10-30T09:25:27.287Z,9.63
2022-10-30T09:27:54.526Z,5.87
2022-10-30T09:30:22.422Z,8.77
2022-10-30T09:33:01.488Z,8.73
2022-10-30T09:35:29.768Z,6.67
2022-10-30T09:37:57.943Z,7.93
2022-10-30T09:41:24.432Z,6.53
2022-10-30T09:44:21.511Z,7.07
2022-10-30T09:47:23.323Z,7.80
2022-10-30T09:50:11.926Z,10.20
2022-10-30T09:53:01.392Z,9.27
2022-10-30T09:56:23.735Z,8.17
2022-10-30T09:59:16.633Z,11.90
2022-10-30T10:02:11.070Z,7.33
2022-10-30T10:04:51.862Z,9.70
2022-10-30T10:07:35.642Z,7.80
2022-10-30T10:10:36.783Z,4.97
2022-10-30T10:13:16.280Z,10.00
2022-10-30T10:15:57.399Z,6.57
2022-10-30T10:21:33.202Z,6.80
2022-10-30T10:24:04.346Z,8.87
2022-10-30T10:26:45.472Z,9.93
2022-10-30T10:29:41.490Z,5.63
2022-10-30T10:32:52.310Z,10.03
2022-10-30T10:36:06.122Z,7.13
2022-10-30T10:39:00.185Z,9.27
2022-10-30T10:42:03.794Z,10.33
2022-10-30T10:45:17.314Z,4.97
2022-10-30T10:47:53.202Z,5.57
2022-10-30T10:50:36.520Z,9.63
2022-10-30T10:53:29.369Z,9.73
2022-10-30T10:56:00.934Z,8.00
2022-10-30T10:59:00.854Z,7.83
2022-10-30T11:01:48.835Z,7.23
2022-10-30T11:04:45.492Z,9.20
2022-10-30T11:07:24.145Z,5.00
2022-10-30T11:09:58.371Z,6.67
2022-10-30T11:12:37.069Z,4.97
2022-10-30T11:15:24.136Z,8.17
2022-10-30T11:18:10.312Z,7.23
2022-10-30T11:21:18.207Z,9.60
2022-10-30T11:23:48.380Z,7.87
2022-10-30T11:26:18.528Z,8.47
2022-10-30T11:28:56.286Z,3.30
2022-10-30T11:31:29.564Z,9.30
2022-10-30T11:33:57.072Z,7.40
2022-10-30T11:36:26.417Z,9.07
2022-10-30T11:39:09.082Z,6.72
2022-10-30T11:41:36.632Z,7.35
2022-10-30T11:44:06.540Z,4.20
2022-10-30T11:46:36.486Z,6.10
2022-10-30T11:49:03.849Z,9.13
2022-10-30T11:51:39.488Z,7.45
2022-10-30T11:54:16.007Z,10.05
2022-10-30T11:56:49.866Z,7.03
2022-10-30T11:59:23.828Z,7.85
2022-10-30T12:02:19.337Z,8.52
2022-10-30T12:04:46.813Z,7.85
2022-10-30T12:07:23.107Z,6.80
2022-10-30T12:09:50.908Z,9.13
2022-10-30T12:12:38.886Z,7.95
2022-10-30T12:15:15.257Z,8.32
2022-10-30T12:18:00.329Z,8.07
2022-10-30T12:20:29.269Z,7.30
2022-10-30T12:22:57.959Z,10.05
2022-10-30T12:25:31.012Z,8.15
2022-10-30T12:28:08.197Z,10.52
2022-10-30T12:30:49.770Z,5.80
2022-10-30T12:33:28.883Z,8.23
2022-10-30T12:36:18.185Z,8.98
2022-10-30T12:38:57.510Z,12.30
2022-10-30T12:41:59.570Z,6.13
2022-10-30T12:44:51.864Z,7.60
2022-10-30T12:47:29.042Z,5.47
2022-10-30T12:50:06.902Z,5.40
2022-10-30T12:52:46.630Z,30.25
2022-10-30T12:55:37.022Z,9.52
2022-10-30T12:58:39.998Z,5.18
2022-10-30T13:01:25.753Z,22.42
2022-10-30T13:04:15.719Z,6.55
2022-10-30T13:07:03.290Z,6.93
2022-10-30T13:10:20.257Z,7.18
2022-10-30T13:12:52.723Z,6.90
2022-10-30T13:15:31.014Z,6.87
2022-10-30T13:18:16.378Z,11.37
2022-10-30T13:20:57.529Z,6.90
2022-10-30T13:23:35.681Z,7.40
2022-10-30T13:26:31.651Z,7.93
2022-10-30T13:29:23.390Z,9.30
2022-10-30T13:32:34.158Z,4.47
2022-10-30T13:35:44.306Z,8.13
2022-10-30T13:38:45.171Z,8.60
2022-10-30T13:41:31.670Z,9.63
2022-10-30T13:44:34.968Z,9.43
2022-10-30T13:47:32.588Z,9.83
2022-10-30T13:50:51.471Z,15.80
2022-10-30T13:53:28.097Z,9.73
2022-10-30T13:55:57.382Z,8.37
2022-10-30T13:58:44.182Z,5.93
2022-10-30T14:01:46.028Z,10.67
2022-10-30T14:04:32.877Z,7.77
2022-10-30T14:07:38.376Z,6.80
2022-10-30T14:10:20.817Z,4.93
2022-10-30T14:12:57.310Z,8.67
2022-10-30T14:15:31.303Z,5.30
2022-10-30T14:18:13.717Z,5.33
2022-10-30T14:20:52.651Z,5.77
2022-10-30T14:23:33.121Z,10.77
2022-10-30T14:26:03.570Z,11.43
2022-10-30T14:28:41.796Z,8.57
2022-10-30T14:31:18.609Z,6.07
2022-10-30T14:33:51.597Z,7.03
2022-10-30T14:36:23.169Z,4.77
2022-10-30T14:39:09.886Z,5.17
2022-10-30T14:42:19.740Z,6.67
2022-10-30T14:45:22.388Z,11.70
2022-10-30T14:48:34.882Z,7.93
2022-10-30T14:51:33.640Z,9.13
2022-10-30T14:54:06.290Z,8.40
2022-10-30T14:56:48.550Z,10.23
2022-10-30T14:59:15.594Z,7.30
2022-10-30T15:01:51.555Z,10.23
2022-10-30T15:04:40.732Z,13.13
2022-10-30T15:07:31.778Z,8.70
2022-10-30T15:10:16.319Z,8.47
2022-10-30T15:13:21.434Z,9.30
2022-10-30T15:16:07.915Z,9.17
2022-10-30T15:18:35.280Z,12.70
2022-10-30T15:21:07.192Z,13.87
2022-10-30T15:23:37.552Z,13.17
2022-10-30T15:26:20.058Z,12.93
2022-10-30T15:28:51.725Z,14.80
2022-10-30T15:31:24.074Z,8.93
2022-10-30T15:33:52.879Z,9.43
2022-10-30T15:36:40.424Z,11.73
2022-10-30T15:39:18.835Z,11.97
2022-10-30T15:42:01.945Z,14.30
2022-10-30T15:44:41.457Z,8.77
2022-10-30T15:47:19.875Z,12.23
2022-10-30T15:49:54.096Z,12.43
2022-10-30T15:52:28.659Z,14.00
2022-10-30T15:55:07.826Z,12.90
2022-10-30T15:58:02.874Z,8.03
2022-10-30T16:00:36.104Z,13.93
2022-10-30T16:03:18.131Z,12.20
2022-10-30T16:05:46.029Z,15.23
2022-10-30T16:08:21.008Z,20.93
2022-10-30T16:10:52.611Z,18.63
2022-10-30T16:13:29.457Z,25.97
2022-10-30T16:15:57.278Z,22.83
2022-10-30T16:18:36.426Z,22.53
2022-10-30T16:21:09.488Z,18.23
2022-10-30T16:23:47.394Z,17.63
2022-10-30T16:26:24.588Z,17.63
2022-10-30T16:28:52.085Z,19.73
2022-10-30T16:31:20.494Z,17.50
2022-10-30T16:33:48.816Z,22.50
2022-10-30T16:36:18.480Z,24.33
2022-10-30T16:38:49.657Z,19.00
2022-10-30T16:41:24.167Z,16.13
2022-10-30T16:44:17.319Z,16.60
2022-10-30T16:46:57.315Z,17.60
2022-10-30T16:49:30.585Z,17.93
2022-10-30T16:52:04.217Z,10.23
2022-10-30T16:54:49.020Z,10.50
2022-10-30T16:57:30.209Z,13.20
2022-10-30T17:00:00.859Z,12.87
2022-10-30T17:02:33.857Z,10.10
2022-10-30T17:05:19.576Z,12.10
2022-10-30T17:08:03.863Z,9.27
2022-10-30T17:10:55.043Z,13.33
2022-10-30T17:13:39.366Z,8.63
2022-10-30T17:16:26.554Z,9.50
2022-10-30T17:18:59.980Z,9.73
2022-10-30T17:21:41.108Z,8.47
2022-10-30T17:24:41.944Z,12.63
2022-10-30T17:27:50.526Z,14.23
2022-10-30T17:30:34.057Z,15.27
2022-10-30T17:33:37.560Z,12.23
2022-10-30T17:36:06.674Z,11.83
2022-10-30T17:38:34.083Z,15.67
2022-10-30T17:41:02.476Z,11.60
2022-10-30T17:43:52.039Z,12.80
2022-10-30T17:46:20.574Z,12.00
2022-10-30T17:48:48.642Z,9.43
2022-10-30T17:51:18.225Z,11.07
2022-10-30T17:53:50.156Z,12.03
2022-10-30T17:56:31.421Z,10.47
2022-10-30T17:58:58.654Z,11.73
2022-10-30T18:01:27.564Z,8.57
2022-10-30T18:03:56.239Z,8.13
2022-10-30T18:06:27.324Z,13.40
2022-10-30T18:08:55.281Z,13.50
2022-10-30T18:11:24.871Z,13.90
2022-10-30T18:13:55.588Z,16.47
2022-10-30T18:16:23.339Z,18.07
2022-10-30T18:18:51.529Z,18.30
2022-10-30T18:21:22.710Z,18.23
2022-10-30T18:23:53.115Z,25.27
2022-10-30T18:26:26.991Z,18.37
2022-10-30T18:28:54.974Z,14.07
2022-10-30T18:31:25.823Z,16.77
2022-10-30T18:33:53.234Z,18.17
2022-10-30T18:36:24.623Z,17.17
2022-10-30T18:38:52.787Z,12.90
2022-10-30T18:41:36.738Z,12.43
2022-10-30T18:44:04.721Z,10.50
2022-10-30T18:46:33.896Z,15.50
2022-10-30T18:49:01.493Z,10.40
2022-10-30T18:51:29.542Z,14.37
2022-10-30T18:53:57.287Z,16.00
2022-10-30T18:56:28.001Z,13.10
2022-10-30T18:59:00.753Z,12.40
2022-10-30T19:01:31.708Z,13.50
2022-10-30T19:03:59.286Z,16.63
2022-10-30T19:06:26.917Z,9.73
2022-10-30T19:08:54.315Z,13.67
2022-10-30T19:11:24.881Z,9.57
2022-10-30T19:13:54.525Z,11.03
2022-10-30T19:16:22.720Z,10.10
2022-10-30T19:18:49.923Z,7.43
2022-10-30T19:21:19.891Z,12.40
2022-10-30T19:23:50.503Z,14.30
2022-10-30T19:26:18.033Z,11.30
2022-10-30T19:28:46.720Z,11.13
2022-10-30T19:31:18.203Z,9.27
2022-10-30T19:33:52.958Z,11.00
2022-10-30T19:36:34.951Z,12.80
2022-10-30T19:39:14.173Z,9.53
2022-10-30T19:41:41.641Z,6.43
2022-10-30T19:44:09.365Z,12.43
2022-10-30T19:46:37.539Z,14.30
2022-10-30T19:49:17.979Z,14.97
2022-10-30T19:51:45.247Z,11.93
2022-10-30T19:54:12.584Z,11.10
2022-10-30T19:56:39.733Z,15.73
2022-10-30T19:59:13.403Z,14.43
2022-10-30T20:01:40.769Z,12.73
2022-10-30T20:04:08.011Z,12.17
2022-10-30T20:06:35.175Z,12.90
2022-10-30T20:09:02.310Z,14.93
2022-10-30T20:11:29.713Z,11.23
2022-10-30T20:13:56.841Z,11.33
2022-10-30T20:16:24.266Z,12.17
2022-10-30T20:18:51.490Z,9.87
2022-10-30T20:21:20.276Z,15.97
2022-10-30T20:23:47.544Z,16.67
2022-10-30T20:26:25.234Z,14.10
2022-10-30T20:28:53.502Z,13.97
2022-10-30T20:31:21.594Z,14.00
2022-10-30T20:33:48.846Z,18.30
2022-10-30T20:36:16.043Z,9.57
2022-10-30T20:38:43.402Z,11.90
2022-10-30T20:41:25.541Z,10.53
2022-10-30T20:43:52.811Z,11.87
2022-10-30T20:46:21.550Z,16.53
2022-10-30T20:48:49.179Z,9.67
2022-10-30T20:51:16.586Z,8.57
2022-10-30T20:53:43.825Z,10.17
2022-10-30T20:56:11.082Z,9.93
2022-10-30T20:58:38.508Z,9.80
2022-10-30T21:01:06.156Z,8.70
2022-10-30T21:03:33.484Z,9.77
2022-10-30T21:06:02.395Z,9.67
2022-10-30T21:08:31.561Z,9.93
2022-10-30T21:11:02.373Z,9.13
2022-10-30T21:13:29.946Z,6.50
2022-10-30T21:16:02.652Z,8.43
2022-10-30T21:18:30.358Z,7.90
2022-10-30T21:21:08.930Z,12.13
2022-10-30T21:23:36.151Z,10.60
2022-10-30T21:26:08.009Z,10.70
2022-10-30T21:28:35.210Z,11.13
2022-10-30T21:31:10.979Z,9.63
2022-10-30T21:33:38.912Z,10.17
2022-10-30T21:36:15.357Z,8.83
2022-10-30T21:38:44.256Z,8.13
2022-10-30T21:41:17.123Z,7.97
2022-10-30T21:43:50.179Z,9.50
2022-10-30T21:46:17.966Z,5.83
2022-10-30T21:48:45.093Z,7.37
2022-10-30T21:51:25.102Z,10.97
2022-10-30T21:53:54.118Z,9.23
2022-10-30T21:56:25.913Z,7.90
2022-10-30T21:58:55.518Z,7.13
2022-10-30T22:01:29.211Z,10.53
2022-10-30T22:04:00.368Z,6.90
2022-10-30T22:06:29.092Z,8.03
2022-10-30T22:08:57.651Z,10.97
2022-10-30T22:11:28.545Z,12.30
2022-10-30T22:13:59.188Z,6.63
2022-10-30T22:16:28.329Z,5.90
2022-10-30T22:18:57.016Z,7.27
2022-10-30T22:21:25.151Z,11.17
2022-10-30T22:23:52.353Z,11.10
2022-10-30T22:26:22.541Z,6.80
2022-10-30T22:28:54.619Z,12.33
2022-10-30T22:31:24.890Z,12.63
2022-10-30T22:33:53.076Z,6.47
2022-10-30T22:36:25.425Z,6.13
2022-10-30T22:39:00.379Z,10.13
2022-10-30T22:41:34.405Z,8.57
2022-10-30T22:44:06.555Z,5.60
2022-10-30T22:46:33.960Z,9.33
2022-10-30T22:49:01.123Z,7.63
2022-10-30T22:51:31.289Z,7.47
2022-10-30T22:54:04.573Z,10.60
2022-10-30T22:56:34.917Z,6.73
2022-10-30T22:59:05.943Z,10.97
2022-10-30T23:01:36.154Z,7.97
2022-10-30T23:04:05.559Z,6.67
2022-10-30T23:06:35.231Z,9.87
2022-10-30T23:09:08.015Z,8.60
2022-10-30T23:11:35.778Z,6.73
2022-10-30T23:14:03.467Z,3.90
2022-10-30T23:16:30.943Z,8.27
2022-10-30T23:19:00.637Z,7.63
2022-10-30T23:21:30.987Z,7.80
2022-10-30T23:23:59.261Z,6.57
2022-10-30T23:26:33.319Z,6.20
2022-10-30T23:29:01.899Z,5.47
2022-10-30T23:31:39.429Z,5.40
2022-10-30T23:34:10.916Z,4.40
2022-10-30T23:36:38.758Z,6.03
2022-10-30T23:39:16.600Z,4.97
2022-10-30T23:41:44.708Z,5.87
2022-10-30T23:44:15.520Z,7.97
2022-10-30T23:46:42.767Z,9.93
2022-10-30T23:49:09.896Z,9.50
2022-10-30T23:51:37.215Z,8.83
2022-10-30T23:54:05.453Z,7.53
2022-10-30T23:56:32.652Z,5.33
2022-10-30T23:59:00.798Z,9.90
